createdAt,value
2018-04-22T00:00:42.191Z,94.20
2018-04-22T00:01:42.201Z,55.30
2018-04-22T00:02:42.203Z,63.90
2018-04-22T00:03:42.194Z,71.80
2018-04-22T00:04:42.198Z,54.90
2018-04-22T00:05:42.195Z,51.40
2018-04-22T00:06:43.187Z,63.00
2018-04-22T00:07:42.200Z,97.80
2018-04-22T00:08:42.210Z,93.30
2018-04-22T00:09:42.197Z,79.80
2018-04-22T00:10:42.201Z,163.30
2018-04-22T00:11:42.202Z,126.70
2018-04-22T00:12:42.201Z,86.70
2018-04-22T00:13:42.202Z,74.70
2018-04-22T00:14:42.205Z,87.80
2018-04-22T00:15:42.222Z,64.90
2018-04-22T00:16:42.207Z,73.50
2018-04-22T00:17:42.209Z,92.40
2018-04-22T00:18:42.209Z,60.00
2018-04-22T00:19:42.208Z,51.70
2018-04-22T00:20:42.209Z,48.10
2018-04-22T00:21:43.345Z,48.20
2018-04-22T00:22:42.210Z,51.90
2018-04-22T00:23:42.209Z,59.50
2018-04-22T00:24:42.209Z,81.50
2018-04-22T00:25:42.206Z,69.70
2018-04-22T00:26:42.214Z,58.60
2018-04-22T00:27:42.374Z,69.10
2018-04-22T00:28:42.214Z,72.20
2018-04-22T00:29:42.231Z,52.10
2018-04-22T00:30:42.685Z,103.80
2018-04-22T00:31:42.215Z,123.70
2018-04-22T00:32:42.212Z,50.20
2018-04-22T00:33:42.215Z,108.80
2018-04-22T00:34:42.240Z,81.70
2018-04-22T00:35:42.351Z,65.90
2018-04-22T00:36:42.226Z,54.70
2018-04-22T00:37:43.138Z,94.80
2018-04-22T00:38:43.074Z,95.60
2018-04-22T00:39:42.214Z,83.00
2018-04-22T00:40:42.572Z,109.10
2018-04-22T00:41:42.218Z,74.80
2018-04-22T00:42:42.223Z,62.10
2018-04-22T00:43:42.313Z,85.40
2018-04-22T00:44:42.478Z,79.80
2018-04-22T00:45:42.229Z,65.10
2018-04-22T00:46:42.217Z,79.80
2018-04-22T00:47:42.232Z,48.80
2018-04-22T00:48:42.219Z,67.40
2018-04-22T00:49:42.218Z,65.10
2018-04-22T00:50:42.220Z,65.20
2018-04-22T00:51:42.221Z,53.60
2018-04-22T00:52:42.220Z,99.60
2018-04-22T00:53:42.225Z,76.80
2018-04-22T00:54:42.249Z,64.00
2018-04-22T00:55:42.220Z,63.40
2018-04-22T00:56:44.159Z,70.70
2018-04-22T00:57:42.222Z,60.90
2018-04-22T00:58:42.225Z,57.90
2018-04-22T00:59:42.231Z,53.60
2018-04-22T01:00:42.224Z,85.40
2018-04-22T01:01:42.223Z,138.60
2018-04-22T01:02:42.224Z,63.60
2018-04-22T01:03:42.222Z,83.20
2018-04-22T01:04:42.223Z,60.50
2018-04-22T01:05:42.225Z,52.20
2018-04-22T01:06:42.244Z,60.50
2018-04-22T01:07:42.265Z,64.60
2018-04-22T01:08:42.228Z,62.70
2018-04-22T01:09:42.287Z,51.40
2018-04-22T01:10:42.316Z,51.60
2018-04-22T01:11:42.226Z,89.80
2018-04-22T01:12:42.228Z,60.90
2018-04-22T01:13:42.232Z,61.20
2018-04-22T01:14:42.228Z,241.70
2018-04-22T01:15:42.225Z,199.20
2018-04-22T01:16:42.230Z,97.30
2018-04-22T01:17:42.228Z,57.30
2018-04-22T01:18:42.263Z,50.80
2018-04-22T01:19:42.237Z,51.10
2018-04-22T01:20:42.238Z,48.70
2018-04-22T01:21:42.244Z,48.60
2018-04-22T01:22:42.227Z,52.20
2018-04-22T01:23:42.316Z,54.50
2018-04-22T01:24:42.240Z,71.10
2018-04-22T01:25:42.226Z,64.70
2018-04-22T01:26:42.232Z,50.70
2018-04-22T01:27:42.230Z,57.10
2018-04-22T01:28:42.238Z,62.40
2018-04-22T01:29:42.232Z,47.50
2018-04-22T01:30:42.228Z,50.50
2018-04-22T01:31:42.228Z,56.90
2018-04-22T01:32:42.232Z,49.40
2018-04-22T01:33:42.227Z,54.70
2018-04-22T01:34:42.228Z,53.10
2018-04-22T01:35:44.173Z,51.60
2018-04-22T01:36:42.233Z,109.90
2018-04-22T01:37:42.228Z,175.20
2018-04-22T01:38:42.475Z,121.50
2018-04-22T01:39:44.238Z,120.90
2018-04-22T01:40:42.260Z,109.80
2018-04-22T01:41:42.237Z,62.90
2018-04-22T01:42:42.558Z,48.30
2018-04-22T01:43:42.311Z,103.40
2018-04-22T01:44:42.232Z,102.40
2018-04-22T01:45:42.228Z,151.30
2018-04-22T01:46:42.228Z,60.10
2018-04-22T01:47:42.233Z,64.60
2018-04-22T01:48:42.231Z,129.90
2018-04-22T01:49:42.244Z,90.70
2018-04-22T01:50:42.232Z,78.40
2018-04-22T01:51:42.230Z,61.20
2018-04-22T01:52:42.229Z,143.60
2018-04-22T01:53:42.232Z,124.70
2018-04-22T01:54:42.237Z,66.20
2018-04-22T01:55:42.232Z,65.90
2018-04-22T01:56:42.230Z,61.40
2018-04-22T01:57:42.233Z,54.60
2018-04-22T01:58:42.233Z,49.50
2018-04-22T01:59:42.232Z,48.60
2018-04-22T02:00:42.235Z,49.60
2018-04-22T02:01:42.229Z,47.20
2018-04-22T02:02:42.228Z,58.50
2018-04-22T02:03:42.229Z,51.90
2018-04-22T02:04:42.229Z,56.30
2018-04-22T02:05:42.227Z,62.50
2018-04-22T02:06:42.226Z,55.40
2018-04-22T02:07:42.226Z,61.30
2018-04-22T02:08:42.790Z,50.10
2018-04-22T02:09:42.876Z,81.50
2018-04-22T02:10:42.225Z,70.70
2018-04-22T02:11:42.225Z,54.90
2018-04-22T02:12:42.229Z,53.40
2018-04-22T02:13:42.240Z,73.20
2018-04-22T02:14:44.174Z,71.50
2018-04-22T02:15:42.225Z,67.40
2018-04-22T02:16:42.224Z,65.30
2018-04-22T02:17:42.225Z,47.40
2018-04-22T02:18:45.171Z,47.40
2018-04-22T02:19:42.223Z,54.40
2018-04-22T02:20:42.223Z,46.30
2018-04-22T02:21:42.236Z,45.00
2018-04-22T02:22:42.222Z,44.30
2018-04-22T02:23:42.222Z,45.30
2018-04-22T02:24:42.223Z,44.30
2018-04-22T02:25:42.224Z,42.90
2018-04-22T02:26:42.221Z,43.60
2018-04-22T02:27:42.223Z,42.40
2018-04-22T02:28:42.221Z,46.00
2018-04-22T02:29:42.219Z,44.80
2018-04-22T02:30:42.220Z,44.50
2018-04-22T02:31:42.219Z,46.70
2018-04-22T02:32:42.220Z,47.10
2018-04-22T02:33:42.216Z,45.20
2018-04-22T02:34:42.234Z,45.90
2018-04-22T02:35:42.221Z,45.20
2018-04-22T02:36:42.241Z,46.00
2018-04-22T02:37:42.215Z,46.20
2018-04-22T02:38:42.216Z,45.40
2018-04-22T02:39:42.227Z,43.60
2018-04-22T02:40:42.218Z,43.50
2018-04-22T02:41:42.215Z,44.00
2018-04-22T02:42:42.211Z,45.90
2018-04-22T02:43:42.216Z,43.00
2018-04-22T02:44:42.215Z,42.60
2018-04-22T02:45:42.211Z,43.90
2018-04-22T02:46:42.210Z,42.70
2018-04-22T02:47:42.212Z,44.00
2018-04-22T02:48:42.208Z,46.80
2018-04-22T02:49:42.207Z,44.70
2018-04-22T02:50:42.207Z,43.00
2018-04-22T02:51:42.207Z,44.40
2018-04-22T02:52:42.207Z,44.70
2018-04-22T02:53:42.204Z,41.90
2018-04-22T02:54:42.209Z,42.50
2018-04-22T02:55:42.205Z,40.10
2018-04-22T02:56:42.205Z,42.60
2018-04-22T02:57:42.201Z,43.60
2018-04-22T02:58:42.201Z,44.60
2018-04-22T02:59:42.202Z,44.10
2018-04-22T03:00:42.201Z,44.10
2018-04-22T03:01:42.198Z,44.20
2018-04-22T03:02:42.198Z,42.70
2018-04-22T03:03:42.198Z,42.70
2018-04-22T03:04:42.198Z,42.90
2018-04-22T03:05:42.196Z,43.20
2018-04-22T03:06:42.195Z,42.00
2018-04-22T03:07:42.195Z,41.70
2018-04-22T03:08:42.197Z,41.30
2018-04-22T03:09:42.194Z,42.40
2018-04-22T03:10:42.196Z,42.50
2018-04-22T03:11:42.191Z,42.40
2018-04-22T03:12:42.190Z,43.50
2018-04-22T03:13:42.229Z,40.40
2018-04-22T03:14:42.191Z,41.50
2018-04-22T03:15:42.189Z,43.10
2018-04-22T03:16:42.191Z,43.60
2018-04-22T03:17:42.197Z,41.40
2018-04-22T03:18:42.188Z,42.80
2018-04-22T03:19:42.184Z,44.30
2018-04-22T03:20:42.196Z,43.20
2018-04-22T03:21:42.184Z,43.80
2018-04-22T03:22:42.188Z,44.90
2018-04-22T03:23:42.181Z,43.40
2018-04-22T03:24:42.181Z,40.80
2018-04-22T03:25:42.181Z,43.80
2018-04-22T03:26:42.178Z,43.70
2018-04-22T03:27:42.178Z,45.10
2018-04-22T03:28:42.178Z,43.00
2018-04-22T03:29:42.177Z,45.30
2018-04-22T03:30:42.174Z,44.90
2018-04-22T03:31:42.181Z,44.70
2018-04-22T03:32:42.173Z,43.70
2018-04-22T03:33:42.171Z,42.60
2018-04-22T03:34:42.173Z,42.80
2018-04-22T03:35:42.177Z,42.80
2018-04-22T03:36:42.170Z,42.60
2018-04-22T03:37:42.168Z,43.40
2018-04-22T03:38:42.173Z,44.80
2018-04-22T03:39:42.166Z,43.70
2018-04-22T03:40:42.167Z,43.20
2018-04-22T03:41:42.167Z,43.10
2018-04-22T03:42:42.178Z,42.30
2018-04-22T03:43:42.165Z,43.00
2018-04-22T03:44:42.163Z,43.80
2018-04-22T03:45:42.162Z,42.20
2018-04-22T03:46:42.163Z,43.70
2018-04-22T03:47:42.160Z,42.50
2018-04-22T03:48:42.162Z,44.90
2018-04-22T03:49:42.158Z,43.60
2018-04-22T03:50:42.159Z,44.70
2018-04-22T03:51:42.156Z,44.10
2018-04-22T03:52:42.156Z,44.30
2018-04-22T03:53:42.156Z,45.30
2018-04-22T03:54:42.153Z,46.40
2018-04-22T03:55:42.157Z,46.30
2018-04-22T03:56:42.151Z,45.90
2018-04-22T03:57:42.150Z,43.70
2018-04-22T03:58:42.157Z,44.60
2018-04-22T03:59:42.148Z,44.90
2018-04-22T04:00:42.153Z,46.30
2018-04-22T04:01:42.147Z,45.70
2018-04-22T04:02:42.147Z,46.10
2018-04-22T04:03:42.144Z,47.20
2018-04-22T04:04:42.144Z,44.50
2018-04-22T04:05:42.140Z,45.50
2018-04-22T04:06:42.140Z,46.10
2018-04-22T04:07:42.140Z,46.50
2018-04-22T04:08:42.137Z,46.10
2018-04-22T04:09:42.165Z,49.40
2018-04-22T04:10:42.134Z,47.00
2018-04-22T04:11:42.133Z,46.10
2018-04-22T04:12:42.567Z,45.30
2018-04-22T04:13:42.131Z,44.00
2018-04-22T04:14:42.129Z,43.30
2018-04-22T04:15:42.129Z,49.40
2018-04-22T04:16:42.130Z,43.80
2018-04-22T04:17:42.131Z,44.30
2018-04-22T04:18:42.137Z,42.70
2018-04-22T04:19:42.123Z,43.50
2018-04-22T04:20:42.122Z,44.40
2018-04-22T04:21:42.125Z,42.40
2018-04-22T04:22:42.119Z,42.20
2018-04-22T04:23:42.120Z,46.10
2018-04-22T04:24:42.117Z,44.30
2018-04-22T04:25:42.117Z,43.80
2018-04-22T04:26:42.115Z,46.40
2018-04-22T04:27:42.113Z,45.60
2018-04-22T04:28:42.114Z,45.20
2018-04-22T04:29:42.111Z,44.80
2018-04-22T04:30:42.314Z,44.10
2018-04-22T04:31:42.110Z,43.90
2018-04-22T04:32:42.629Z,44.80
2018-04-22T04:33:43.285Z,43.10
2018-04-22T04:34:42.105Z,45.10
2018-04-22T04:35:42.106Z,44.10
2018-04-22T04:36:42.105Z,43.50
2018-04-22T04:37:42.100Z,44.60
2018-04-22T04:38:42.099Z,45.00
2018-04-22T04:39:42.102Z,45.40
2018-04-22T04:40:42.104Z,43.80
2018-04-22T04:41:42.157Z,44.50
2018-04-22T04:42:42.094Z,43.10
2018-04-22T04:43:43.188Z,42.90
2018-04-22T04:44:42.671Z,43.80
2018-04-22T04:45:42.184Z,45.60
2018-04-22T04:46:43.145Z,45.20
2018-04-22T04:47:42.432Z,46.60
2018-04-22T04:48:42.097Z,46.10
2018-04-22T04:49:42.086Z,47.90
2018-04-22T04:50:42.111Z,48.90
2018-04-22T04:51:42.084Z,50.80
2018-04-22T04:52:42.082Z,48.70
2018-04-22T04:53:42.081Z,50.40
2018-04-22T04:54:42.084Z,50.20
2018-04-22T04:55:42.083Z,50.20
2018-04-22T04:56:42.083Z,51.30
2018-04-22T04:57:42.111Z,52.30
2018-04-22T04:58:42.144Z,51.00
2018-04-22T04:59:42.083Z,52.50
2018-04-22T05:00:42.088Z,54.10
2018-04-22T05:01:42.122Z,55.30
2018-04-22T05:02:42.118Z,55.20
2018-04-22T05:03:42.071Z,56.30
2018-04-22T05:04:42.091Z,54.50
2018-04-22T05:05:42.069Z,53.70
2018-04-22T05:06:42.089Z,53.60
2018-04-22T05:07:42.069Z,55.60
2018-04-22T05:08:42.113Z,53.80
2018-04-22T05:09:42.067Z,55.10
2018-04-22T05:10:42.073Z,57.00
2018-04-22T05:11:42.067Z,56.40
2018-04-22T05:12:42.063Z,56.70
2018-04-22T05:13:42.061Z,57.00
2018-04-22T05:14:42.065Z,60.30
2018-04-22T05:15:42.060Z,58.10
2018-04-22T05:16:42.059Z,59.10
2018-04-22T05:17:42.057Z,56.90
2018-04-22T05:18:42.110Z,58.10
2018-04-22T05:19:42.064Z,58.10
2018-04-22T05:20:42.057Z,60.80
2018-04-22T05:21:42.055Z,57.90
2018-04-22T05:22:42.055Z,60.40
2018-04-22T05:23:42.054Z,58.90
2018-04-22T05:24:42.053Z,58.90
2018-04-22T05:25:42.052Z,57.60
2018-04-22T05:26:42.053Z,58.40
2018-04-22T05:27:42.051Z,56.60
2018-04-22T05:28:42.052Z,57.90
2018-04-22T05:29:42.049Z,57.40
2018-04-22T05:30:42.050Z,58.80
2018-04-22T05:31:42.049Z,58.80
2018-04-22T05:32:42.050Z,59.10
2018-04-22T05:33:42.049Z,62.70
2018-04-22T05:34:42.049Z,62.80
2018-04-22T05:35:42.046Z,61.90
2018-04-22T05:36:42.045Z,62.90
2018-04-22T05:37:42.044Z,61.70
2018-04-22T05:38:42.044Z,61.50
2018-04-22T05:39:42.044Z,63.50
2018-04-22T05:40:42.049Z,63.00
2018-04-22T05:41:42.068Z,62.70
2018-04-22T05:42:42.092Z,63.30
2018-04-22T05:43:42.038Z,62.60
2018-04-22T05:44:42.043Z,62.40
2018-04-22T05:45:42.037Z,61.70
2018-04-22T05:46:42.036Z,60.40
2018-04-22T05:47:42.036Z,61.10
2018-04-22T05:48:42.057Z,58.90
2018-04-22T05:49:42.034Z,57.30
2018-04-22T05:50:42.033Z,57.50
2018-04-22T05:51:42.034Z,58.20
2018-04-22T05:52:42.033Z,55.80
2018-04-22T05:53:42.033Z,52.50
2018-04-22T05:54:42.033Z,51.70
2018-04-22T05:55:42.031Z,50.40
2018-04-22T05:56:42.029Z,50.90
2018-04-22T05:57:42.033Z,50.50
2018-04-22T05:58:42.030Z,50.90
2018-04-22T05:59:42.032Z,48.80
2018-04-22T06:00:42.030Z,48.80
2018-04-22T06:01:42.035Z,50.60
2018-04-22T06:02:42.035Z,49.90
2018-04-22T06:03:42.027Z,52.30
2018-04-22T06:04:42.025Z,53.10
2018-04-22T06:05:42.025Z,53.20
2018-04-22T06:06:42.023Z,49.50
2018-04-22T06:07:42.025Z,48.30
2018-04-22T06:08:42.023Z,47.50
2018-04-22T06:09:42.023Z,45.90
2018-04-22T06:10:42.022Z,46.90
2018-04-22T06:11:42.021Z,47.50
2018-04-22T06:12:42.022Z,47.80
2018-04-22T06:13:42.020Z,49.70
2018-04-22T06:14:42.020Z,47.40
2018-04-22T06:15:42.189Z,47.30
2018-04-22T06:16:42.021Z,46.20
2018-04-22T06:17:42.017Z,47.70
2018-04-22T06:18:42.017Z,48.20
2018-04-22T06:19:42.017Z,44.10
2018-04-22T06:20:42.020Z,47.20
2018-04-22T06:21:42.019Z,46.90
2018-04-22T06:22:42.018Z,44.90
2018-04-22T06:23:42.016Z,45.30
2018-04-22T06:24:42.016Z,44.40
2018-04-22T06:25:42.017Z,43.50
2018-04-22T06:26:42.016Z,45.70
2018-04-22T06:27:42.014Z,43.70
2018-04-22T06:28:42.017Z,45.60
2018-04-22T06:29:42.012Z,46.20
2018-04-22T06:30:42.013Z,46.70
2018-04-22T06:31:42.031Z,47.40
2018-04-22T06:32:42.012Z,46.30
2018-04-22T06:33:42.010Z,48.00
2018-04-22T06:34:42.152Z,44.30
2018-04-22T06:35:42.010Z,43.60
2018-04-22T06:36:42.013Z,44.00
2018-04-22T06:37:42.009Z,43.80
2018-04-22T06:38:42.009Z,45.30
2018-04-22T06:39:42.013Z,44.30
2018-04-22T06:40:42.012Z,45.00
2018-04-22T06:41:42.007Z,46.50
2018-04-22T06:42:42.012Z,46.70
2018-04-22T06:43:42.008Z,47.90
2018-04-22T06:44:42.032Z,47.60
2018-04-22T06:45:42.009Z,48.20
2018-04-22T06:46:42.592Z,46.90
2018-04-22T06:47:42.010Z,48.40
2018-04-22T06:48:42.008Z,47.50
2018-04-22T06:49:42.015Z,46.50
2018-04-22T06:50:42.008Z,48.10
2018-04-22T06:51:42.012Z,48.40
2018-04-22T06:52:42.008Z,49.20
2018-04-22T06:53:42.007Z,49.50
2018-04-22T06:54:42.007Z,49.90
2018-04-22T06:55:42.492Z,50.30
2018-04-22T06:56:42.008Z,49.60
2018-04-22T06:57:42.012Z,49.00
2018-04-22T06:58:42.039Z,49.70
2018-04-22T06:59:42.009Z,48.90
2018-04-22T07:00:42.008Z,47.80
2018-04-22T07:01:42.010Z,50.00
2018-04-22T07:02:42.008Z,50.50
2018-04-22T07:03:42.011Z,50.90
2018-04-22T07:04:42.013Z,49.10
2018-04-22T07:05:42.009Z,48.00
2018-04-22T07:06:42.012Z,47.20
2018-04-22T07:07:42.012Z,48.70
2018-04-22T07:08:42.013Z,48.10
2018-04-22T07:09:42.011Z,49.30
2018-04-22T07:10:42.015Z,48.40
2018-04-22T07:11:42.013Z,50.40
2018-04-22T07:12:42.023Z,48.80
2018-04-22T07:13:42.016Z,47.00
2018-04-22T07:14:42.013Z,47.60
2018-04-22T07:15:42.016Z,49.50
2018-04-22T07:16:42.038Z,47.40
2018-04-22T07:17:42.013Z,46.70
2018-04-22T07:18:42.015Z,47.50
2018-04-22T07:19:42.015Z,47.50
2018-04-22T07:20:42.017Z,48.30
2018-04-22T07:21:42.016Z,49.30
2018-04-22T07:22:42.091Z,46.10
2018-04-22T07:23:42.016Z,46.20
2018-04-22T07:24:42.020Z,46.70
2018-04-22T07:25:42.017Z,46.50
2018-04-22T07:26:42.017Z,48.10
2018-04-22T07:27:42.017Z,46.10
2018-04-22T07:28:42.018Z,46.80
2018-04-22T07:29:42.019Z,45.00
2018-04-22T07:30:42.018Z,46.20
2018-04-22T07:31:42.018Z,47.80
2018-04-22T07:32:42.021Z,45.20
2018-04-22T07:33:42.018Z,46.00
2018-04-22T07:34:42.019Z,44.40
2018-04-22T07:35:42.019Z,45.90
2018-04-22T07:36:42.020Z,45.80
2018-04-22T07:37:42.022Z,44.90
2018-04-22T07:38:42.022Z,43.80
2018-04-22T07:39:42.021Z,43.60
2018-04-22T07:40:42.053Z,45.20
2018-04-22T07:41:42.026Z,45.80
2018-04-22T07:42:42.022Z,44.80
2018-04-22T07:43:42.025Z,44.50
2018-04-22T07:44:42.025Z,42.40
2018-04-22T07:45:42.025Z,42.80
2018-04-22T07:46:42.023Z,43.70
2018-04-22T07:47:42.024Z,44.00
2018-04-22T07:48:42.026Z,44.50
2018-04-22T07:49:42.025Z,44.30
2018-04-22T07:50:42.027Z,42.30
2018-04-22T07:51:42.031Z,42.30
2018-04-22T07:52:42.029Z,41.50
2018-04-22T07:53:42.028Z,42.40
2018-04-22T07:54:42.037Z,42.00
2018-04-22T07:55:42.031Z,40.70
2018-04-22T07:56:42.032Z,41.20
2018-04-22T07:57:42.031Z,40.90
2018-04-22T07:58:42.032Z,40.60
2018-04-22T07:59:42.033Z,39.80
2018-04-22T08:00:42.035Z,40.90
2018-04-22T08:01:42.035Z,42.30
2018-04-22T08:02:42.039Z,40.60
2018-04-22T08:03:42.037Z,42.00
2018-04-22T08:04:42.038Z,41.90
2018-04-22T08:05:42.039Z,39.70
2018-04-22T08:06:42.091Z,40.90
2018-04-22T08:07:42.041Z,39.00
2018-04-22T08:08:42.042Z,39.90
2018-04-22T08:09:42.042Z,37.30
2018-04-22T08:10:42.044Z,39.10
2018-04-22T08:11:42.049Z,40.90
2018-04-22T08:12:42.048Z,40.10
2018-04-22T08:13:42.047Z,39.30
2018-04-22T08:14:42.049Z,39.70
2018-04-22T08:15:42.053Z,40.50
2018-04-22T08:16:42.056Z,39.70
2018-04-22T08:17:42.059Z,39.40
2018-04-22T08:18:42.055Z,39.20
2018-04-22T08:19:42.056Z,39.40
2018-04-22T08:20:42.058Z,39.80
2018-04-22T08:21:42.061Z,40.70
2018-04-22T08:22:42.060Z,40.80
2018-04-22T08:23:42.072Z,39.30
2018-04-22T08:24:42.067Z,36.20
2018-04-22T08:25:42.068Z,37.80
2018-04-22T08:26:42.067Z,38.00
2018-04-22T08:27:42.069Z,38.40
2018-04-22T08:28:42.075Z,37.40
2018-04-22T08:29:42.072Z,38.00
2018-04-22T08:30:42.075Z,37.00
2018-04-22T08:31:42.077Z,37.30
2018-04-22T08:32:42.077Z,36.80
2018-04-22T08:33:42.079Z,36.20
2018-04-22T08:34:42.081Z,37.90
2018-04-22T08:35:42.085Z,37.30
2018-04-22T08:36:42.085Z,36.50
2018-04-22T08:37:42.087Z,35.50
2018-04-22T08:38:42.092Z,35.50
2018-04-22T08:39:42.092Z,35.30
2018-04-22T08:40:42.093Z,35.20
2018-04-22T08:41:42.095Z,34.70
2018-04-22T08:42:42.099Z,34.20
2018-04-22T08:43:42.101Z,34.80
2018-04-22T08:44:42.118Z,34.20
2018-04-22T08:45:42.277Z,35.30
2018-04-22T08:46:42.107Z,33.60
2018-04-22T08:47:42.109Z,33.20
2018-04-22T08:48:42.116Z,32.80
2018-04-22T08:49:42.375Z,33.50
2018-04-22T08:50:42.154Z,33.50
2018-04-22T08:51:42.119Z,34.20
2018-04-22T08:52:42.122Z,32.40
2018-04-22T08:53:42.122Z,32.40
2018-04-22T08:54:42.198Z,33.00
2018-04-22T08:55:42.130Z,33.20
2018-04-22T08:56:42.164Z,32.40
2018-04-22T08:57:42.133Z,33.30
2018-04-22T08:58:42.135Z,33.40
2018-04-22T08:59:42.140Z,32.50
2018-04-22T09:00:42.142Z,31.80
2018-04-22T09:01:42.144Z,31.60
2018-04-22T09:02:42.146Z,31.50
2018-04-22T09:03:42.150Z,30.40
2018-04-22T09:04:42.153Z,30.80
2018-04-22T09:05:42.161Z,30.40
2018-04-22T09:06:42.159Z,30.30
2018-04-22T09:07:42.165Z,29.60
2018-04-22T09:08:43.441Z,30.30
2018-04-22T09:09:42.170Z,29.90
2018-04-22T09:10:42.177Z,31.50
2018-04-22T09:11:44.831Z,29.90
2018-04-22T09:12:42.185Z,28.70
2018-04-22T09:13:42.189Z,29.40
2018-04-22T09:14:42.422Z,28.20
2018-04-22T09:15:42.194Z,28.50
2018-04-22T09:16:42.231Z,28.20
2018-04-22T09:17:42.197Z,28.00
2018-04-22T09:18:42.201Z,27.60
2018-04-22T09:19:42.205Z,27.30
2018-04-22T09:20:42.783Z,27.90
2018-04-22T09:21:42.214Z,27.40
2018-04-22T09:22:42.217Z,27.10
2018-04-22T09:23:42.222Z,26.60
2018-04-22T09:24:42.240Z,26.80
2018-04-22T09:25:42.228Z,26.80
2018-04-22T09:26:42.231Z,25.10
2018-04-22T09:27:42.237Z,26.80
2018-04-22T09:28:42.240Z,25.60
2018-04-22T09:29:42.243Z,24.50
2018-04-22T09:30:42.251Z,24.90
2018-04-22T09:31:42.258Z,25.60
2018-04-22T09:32:42.256Z,25.00
2018-04-22T09:33:42.289Z,23.80
2018-04-22T09:34:42.267Z,24.40
2018-04-22T09:35:42.269Z,24.80
2018-04-22T09:36:42.276Z,24.80
2018-04-22T09:37:42.822Z,22.90
2018-04-22T09:38:42.281Z,22.30
2018-04-22T09:39:42.293Z,22.30
2018-04-22T09:40:42.289Z,22.30
2018-04-22T09:41:42.296Z,22.20
2018-04-22T09:42:42.313Z,22.90
2018-04-22T09:43:42.312Z,21.90
2018-04-22T09:44:42.308Z,23.30
2018-04-22T09:45:42.313Z,22.30
2018-04-22T09:46:42.314Z,21.60
2018-04-22T09:47:42.319Z,20.70
2018-04-22T09:48:42.322Z,21.30
2018-04-22T09:49:42.329Z,21.00
2018-04-22T09:50:42.332Z,20.80
2018-04-22T09:51:43.185Z,20.70
2018-04-22T09:52:42.341Z,19.20
2018-04-22T09:53:42.349Z,18.50
2018-04-22T09:54:42.352Z,19.70
2018-04-22T09:55:42.382Z,18.40
2018-04-22T09:56:42.362Z,18.00
2018-04-22T09:57:42.364Z,17.70
2018-04-22T09:58:42.371Z,17.10
2018-04-22T09:59:42.376Z,18.60
2018-04-22T10:00:42.384Z,17.10
2018-04-22T10:01:42.385Z,16.90
2018-04-22T10:02:42.389Z,15.60
2018-04-22T10:03:42.394Z,16.80
2018-04-22T10:04:42.400Z,15.20
2018-04-22T10:05:42.405Z,15.00
2018-04-22T10:06:42.408Z,15.30
2018-04-22T10:07:42.417Z,13.80
2018-04-22T10:08:42.422Z,14.00
2018-04-22T10:09:42.430Z,14.60
2018-04-22T10:10:42.432Z,13.10
2018-04-22T10:11:42.435Z,12.60
2018-04-22T10:12:42.442Z,13.20
2018-04-22T10:13:42.448Z,13.10
2018-04-22T10:14:42.450Z,12.30
2018-04-22T10:15:42.490Z,12.70
2018-04-22T10:16:42.463Z,12.90
2018-04-22T10:17:42.477Z,12.00
2018-04-22T10:18:42.472Z,11.80
2018-04-22T10:19:42.483Z,12.50
2018-04-22T10:20:42.490Z,13.30
2018-04-22T10:21:42.486Z,11.60
2018-04-22T10:22:42.491Z,11.80
2018-04-22T10:23:42.518Z,11.00
2018-04-22T10:24:42.505Z,12.00
2018-04-22T10:25:42.513Z,11.90
2018-04-22T10:26:42.516Z,12.50
2018-04-22T10:27:42.564Z,13.60
2018-04-22T10:28:42.570Z,12.90
2018-04-22T10:29:42.531Z,13.30
2018-04-22T10:30:42.539Z,12.30
2018-04-22T10:31:42.548Z,13.50
2018-04-22T10:32:42.572Z,12.20
2018-04-22T10:33:42.559Z,12.70
2018-04-22T10:34:42.613Z,12.30
2018-04-22T10:35:42.566Z,11.10
2018-04-22T10:36:42.574Z,11.10
2018-04-22T10:37:42.725Z,11.70
2018-04-22T10:38:43.022Z,11.50
2018-04-22T10:39:42.613Z,10.70
2018-04-22T10:40:42.595Z,11.50
2018-04-22T10:41:42.617Z,11.70
2018-04-22T10:42:42.607Z,12.60
2018-04-22T10:43:42.612Z,12.00
2018-04-22T10:44:42.619Z,11.80
2018-04-22T10:45:42.625Z,11.10
2018-04-22T10:46:42.673Z,11.20
2018-04-22T10:47:42.634Z,12.20
2018-04-22T10:48:42.642Z,12.90
2018-04-22T10:49:42.647Z,11.90
2018-04-22T10:50:42.657Z,12.00
2018-04-22T10:51:42.665Z,11.40
2018-04-22T10:52:42.668Z,10.90
2018-04-22T10:53:42.674Z,12.90
2018-04-22T10:54:42.681Z,11.70
2018-04-22T10:55:42.687Z,11.70
2018-04-22T10:56:42.693Z,10.50
2018-04-22T10:57:42.707Z,11.00
2018-04-22T10:58:42.712Z,10.90
2018-04-22T10:59:42.714Z,10.60
2018-04-22T11:00:42.717Z,10.50
2018-04-22T11:01:42.723Z,10.50
2018-04-22T11:02:42.730Z,9.30
2018-04-22T11:03:42.738Z,10.40
2018-04-22T11:04:42.743Z,9.50
2018-04-22T11:05:42.748Z,9.80
2018-04-22T11:06:42.756Z,8.80
2018-04-22T11:07:42.761Z,9.70
2018-04-22T11:08:42.771Z,9.30
2018-04-22T11:09:42.773Z,9.40
2018-04-22T11:10:42.778Z,9.30
2018-04-22T11:11:42.796Z,8.70
2018-04-22T11:12:42.790Z,9.50
2018-04-22T11:13:42.799Z,8.70
2018-04-22T11:14:42.822Z,9.60
2018-04-22T11:15:42.809Z,9.10
2018-04-22T11:16:42.817Z,8.70
2018-04-22T11:17:42.822Z,9.20
2018-04-22T11:18:42.827Z,10.50
2018-04-22T11:19:42.833Z,9.40
2018-04-22T11:20:42.842Z,9.20
2018-04-22T11:21:42.846Z,9.10
2018-04-22T11:22:42.852Z,10.00
2018-04-22T11:23:42.860Z,8.90
2018-04-22T11:24:42.867Z,9.00
2018-04-22T11:25:42.875Z,8.50
2018-04-22T11:26:42.879Z,8.50
2018-04-22T11:27:42.885Z,8.30
2018-04-22T11:28:42.899Z,8.50
2018-04-22T11:29:42.895Z,8.70
2018-04-22T11:30:42.908Z,8.40
2018-04-22T11:31:42.913Z,8.40
2018-04-22T11:32:42.919Z,8.40
2018-04-22T11:33:42.929Z,9.20
2018-04-22T11:34:42.930Z,9.10
2018-04-22T11:35:42.937Z,8.70
2018-04-22T11:36:42.941Z,8.30
2018-04-22T11:37:42.951Z,9.00
2018-04-22T11:38:42.956Z,8.10
2018-04-22T11:39:42.964Z,8.10
2018-04-22T11:40:42.975Z,7.80
2018-04-22T11:41:42.974Z,8.30
2018-04-22T11:42:42.981Z,9.20
2018-04-22T11:43:42.986Z,9.20
2018-04-22T11:44:42.994Z,8.50
2018-04-22T11:45:43.003Z,7.90
2018-04-22T11:46:43.008Z,8.50
2018-04-22T11:47:43.026Z,8.10
2018-04-22T11:48:43.020Z,7.70
2018-04-22T11:49:43.026Z,7.60
2018-04-22T11:50:43.052Z,7.50
2018-04-22T11:51:43.040Z,7.70
2018-04-22T11:52:43.046Z,7.80
2018-04-22T11:53:43.054Z,7.70
2018-04-22T11:54:43.057Z,7.60
2018-04-22T11:55:43.093Z,7.70
2018-04-22T11:56:43.075Z,8.00
2018-04-22T11:57:43.078Z,7.80
2018-04-22T11:58:43.085Z,7.50
2018-04-22T11:59:43.091Z,6.70
2018-04-22T12:00:43.105Z,8.40
2018-04-22T12:01:43.155Z,8.20
2018-04-22T12:02:43.114Z,7.90
2018-04-22T12:03:43.117Z,7.80
2018-04-22T12:04:43.126Z,9.30
2018-04-22T12:05:43.132Z,7.90
2018-04-22T12:06:43.142Z,10.40
2018-04-22T12:07:43.145Z,9.10
2018-04-22T12:08:43.153Z,7.60
2018-04-22T12:09:43.159Z,7.40
2018-04-22T12:10:43.164Z,7.30
2018-04-22T12:11:43.174Z,7.80
2018-04-22T12:12:43.180Z,8.30
2018-04-22T12:13:43.189Z,7.60
2018-04-22T12:14:43.214Z,7.60
2018-04-22T12:15:43.201Z,8.20
2018-04-22T12:16:43.214Z,7.60
2018-04-22T12:17:43.215Z,7.90
2018-04-22T12:18:43.221Z,8.10
2018-04-22T12:19:43.231Z,7.40
2018-04-22T12:20:43.389Z,7.20
2018-04-22T12:21:43.285Z,7.60
2018-04-22T12:22:43.248Z,7.80
2018-04-22T12:23:43.256Z,7.60
2018-04-22T12:24:43.273Z,8.00
2018-04-22T12:25:43.371Z,7.10
2018-04-22T12:26:43.281Z,7.90
2018-04-22T12:27:43.292Z,7.70
2018-04-22T12:28:43.295Z,7.30
2018-04-22T12:29:43.302Z,7.00
2018-04-22T12:30:43.313Z,7.70
2018-04-22T12:31:43.317Z,7.40
2018-04-22T12:32:43.322Z,7.20
2018-04-22T12:33:43.333Z,8.40
2018-04-22T12:34:43.343Z,9.60
2018-04-22T12:35:43.348Z,9.80
2018-04-22T12:36:43.357Z,7.80
2018-04-22T12:37:43.356Z,7.00
2018-04-22T12:38:43.369Z,7.10
2018-04-22T12:39:43.370Z,7.40
2018-04-22T12:40:43.377Z,7.50
2018-04-22T12:41:43.384Z,10.20
2018-04-22T12:42:43.389Z,8.00
2018-04-22T12:43:43.396Z,6.90
2018-04-22T12:44:43.405Z,6.60
2018-04-22T12:45:43.411Z,6.70
2018-04-22T12:46:43.427Z,6.90
2018-04-22T12:47:43.437Z,6.80
2018-04-22T12:48:43.433Z,7.40
2018-04-22T12:49:43.438Z,6.60
2018-04-22T12:50:43.443Z,6.90
2018-04-22T12:51:43.450Z,7.30
2018-04-22T12:52:43.457Z,7.30
2018-04-22T12:53:43.463Z,6.90
2018-04-22T12:54:43.473Z,6.50
2018-04-22T12:55:43.479Z,7.00